createdAt,value
2022-07-27T00:00:13.562Z,25.75
2022-07-27T00:01:13.652Z,25.71
2022-07-27T00:02:13.926Z,25.76
2022-07-27T00:03:13.652Z,25.67
2022-07-27T00:04:13.798Z,25.69
2022-07-27T00:05:13.718Z,25.69
2022-07-27T00:06:13.750Z,25.66
2022-07-27T00:07:13.807Z,25.72
2022-07-27T00:08:13.813Z,25.72
2022-07-27T00:09:14.877Z,25.64
2022-07-27T00:10:13.876Z,25.67
2022-07-27T00:11:13.908Z,25.69
2022-07-27T00:12:13.937Z,25.69
2022-07-27T00:14:14.004Z,25.74
2022-07-27T00:16:14.176Z,25.71
2022-07-27T00:17:14.393Z,25.82
2022-07-27T00:18:14.148Z,25.67
2022-07-27T00:19:14.616Z,25.78
2022-07-27T00:20:14.193Z,25.74
2022-07-27T00:21:14.217Z,25.67
2022-07-27T00:22:14.267Z,25.69
2022-07-27T00:23:14.292Z,25.67
2022-07-27T00:24:14.617Z,25.67
2022-07-27T00:25:14.341Z,25.72
2022-07-27T00:26:14.374Z,25.67
2022-07-27T00:28:14.433Z,25.71
2022-07-27T00:29:14.934Z,25.64
2022-07-27T00:30:14.514Z,25.76
2022-07-27T00:31:14.895Z,25.76
2022-07-27T00:32:14.563Z,25.69
2022-07-27T00:33:17.059Z,25.67
2022-07-27T00:34:14.625Z,25.75
2022-07-27T00:35:14.660Z,25.69
2022-07-27T00:36:14.803Z,25.76
2022-07-27T00:37:14.720Z,25.72
2022-07-27T00:38:15.048Z,25.74
2022-07-27T00:39:15.127Z,25.69
2022-07-27T00:40:14.822Z,25.66
2022-07-27T00:41:14.852Z,25.67
2022-07-27T00:42:14.879Z,25.64
2022-07-27T00:43:14.908Z,25.69
2022-07-27T00:44:14.939Z,25.67
2022-07-27T00:45:15.269Z,25.64
2022-07-27T00:46:15.043Z,25.76
2022-07-27T00:47:15.032Z,25.74
2022-07-27T00:48:15.062Z,25.69
2022-07-27T00:49:15.798Z,25.69
2022-07-27T00:51:15.156Z,25.67
2022-07-27T00:52:15.493Z,25.75
2022-07-27T00:53:15.272Z,25.71
2022-07-27T00:54:15.259Z,25.64
2022-07-27T00:55:15.278Z,25.63
2022-07-27T00:56:15.314Z,25.72
2022-07-27T00:57:15.342Z,25.66
2022-07-27T00:58:15.387Z,25.67
2022-07-27T00:59:15.755Z,25.64
2022-07-27T01:00:15.440Z,25.67
2022-07-27T01:01:15.471Z,25.71
2022-07-27T01:02:19.277Z,25.64
2022-07-27T01:03:16.478Z,25.81
2022-07-27T01:04:15.570Z,25.67
2022-07-27T01:05:15.592Z,25.74
2022-07-27T01:06:15.927Z,25.78
2022-07-27T01:07:15.665Z,25.72
2022-07-27T01:08:15.774Z,25.76
2022-07-27T01:09:15.724Z,25.63
2022-07-27T01:10:15.755Z,25.63
2022-07-27T01:11:15.786Z,25.67
2022-07-27T01:12:15.815Z,25.63
2022-07-27T01:13:16.139Z,25.63
2022-07-27T01:14:15.874Z,25.63
2022-07-27T01:15:15.901Z,25.75
2022-07-27T01:16:15.998Z,25.72
2022-07-27T01:17:15.967Z,25.78
2022-07-27T01:18:15.998Z,25.64
2022-07-27T01:19:16.191Z,25.67
2022-07-27T01:20:16.368Z,25.64
2022-07-27T01:21:16.089Z,25.67
2022-07-27T01:22:16.122Z,25.75
2022-07-27T01:23:16.151Z,25.64
2022-07-27T01:24:16.184Z,25.71
2022-07-27T01:25:16.215Z,25.69
2022-07-27T01:26:16.253Z,25.71
2022-07-27T01:27:16.582Z,25.64
2022-07-27T01:28:16.308Z,25.71
2022-07-27T01:29:16.342Z,25.66
2022-07-27T01:30:16.370Z,25.71
2022-07-27T01:31:16.469Z,25.67
2022-07-27T01:32:16.438Z,25.69
2022-07-27T01:33:16.468Z,25.69
2022-07-27T01:36:16.860Z,25.67
2022-07-27T01:37:16.588Z,25.64
2022-07-27T01:38:16.722Z,25.66
2022-07-27T01:39:16.651Z,25.67
2022-07-27T01:40:16.846Z,25.71
2022-07-27T01:41:16.720Z,25.63
2022-07-27T01:42:16.744Z,25.64
2022-07-27T01:44:17.117Z,25.63
2022-07-27T01:46:16.934Z,25.69
2022-07-27T01:47:16.902Z,25.67
2022-07-27T01:48:16.937Z,25.64
2022-07-27T01:49:17.412Z,25.74
2022-07-27T01:50:16.995Z,25.69
2022-07-27T01:51:17.473Z,25.74
2022-07-27T01:52:17.057Z,25.69
2022-07-27T01:53:17.088Z,25.66
2022-07-27T01:54:17.131Z,25.66
2022-07-27T01:55:17.151Z,25.69
2022-07-27T01:56:17.200Z,25.63
2022-07-27T01:57:17.210Z,25.71
2022-07-27T01:58:17.548Z,25.67
2022-07-27T02:00:17.310Z,25.61
2022-07-27T02:01:17.491Z,25.66
2022-07-27T02:02:17.366Z,25.61
2022-07-27T02:03:17.396Z,25.64
2022-07-27T02:04:17.436Z,25.66
2022-07-27T02:05:17.816Z,25.63
2022-07-27T02:06:17.499Z,25.60
2022-07-27T02:07:17.520Z,25.60
2022-07-27T02:08:17.552Z,25.66
2022-07-27T02:09:17.586Z,25.66
2022-07-27T02:10:17.620Z,25.67
2022-07-27T02:11:17.651Z,25.66
2022-07-27T02:12:17.978Z,25.64
2022-07-27T02:13:23.098Z,25.67
2022-07-27T02:14:17.759Z,25.60
2022-07-27T02:15:17.786Z,25.67
2022-07-27T02:16:17.885Z,25.60
2022-07-27T02:19:18.285Z,25.66
2022-07-27T02:20:18.235Z,25.66
2022-07-27T02:21:17.967Z,25.63
2022-07-27T02:22:18.001Z,25.61
2022-07-27T02:23:18.029Z,25.60
2022-07-27T02:24:18.062Z,25.60
2022-07-27T02:25:18.092Z,25.67
2022-07-27T02:28:18.183Z,25.63
2022-07-27T02:29:18.527Z,25.61
2022-07-27T02:30:18.246Z,25.67
2022-07-27T02:31:18.309Z,25.64
2022-07-27T02:32:18.313Z,25.67
2022-07-27T02:33:18.406Z,25.64
2022-07-27T02:34:18.374Z,25.64
2022-07-27T02:35:20.283Z,25.64
2022-07-27T02:36:18.433Z,25.63
2022-07-27T02:37:18.463Z,25.67
2022-07-27T02:38:18.494Z,25.59
2022-07-27T02:39:18.522Z,25.59
2022-07-27T02:40:18.731Z,25.63
2022-07-27T02:41:18.594Z,25.63
2022-07-27T02:42:18.922Z,25.59
2022-07-27T02:43:18.668Z,25.61
2022-07-27T02:44:18.689Z,25.59
2022-07-27T02:45:18.713Z,25.61
2022-07-27T02:46:18.873Z,25.57
2022-07-27T02:47:18.788Z,25.60
2022-07-27T02:48:18.821Z,25.49
2022-07-27T02:49:19.194Z,25.60
2022-07-27T02:50:18.865Z,25.61
2022-07-27T02:51:18.896Z,25.54
2022-07-27T02:52:18.930Z,25.51
2022-07-27T02:53:18.964Z,25.49
2022-07-27T02:54:18.997Z,25.53
2022-07-27T02:55:19.023Z,25.46
2022-07-27T02:56:19.352Z,25.54
2022-07-27T02:57:19.081Z,25.49
2022-07-27T02:58:19.122Z,25.46
2022-07-27T02:59:19.159Z,25.54
2022-07-27T03:00:19.184Z,25.60
2022-07-27T03:01:19.271Z,25.53
2022-07-27T03:02:19.237Z,25.53
2022-07-27T03:03:19.577Z,25.49
2022-07-27T03:05:19.488Z,25.51
2022-07-27T03:06:19.376Z,25.61
2022-07-27T03:07:19.394Z,25.53
2022-07-27T03:08:19.423Z,25.53
2022-07-27T03:09:19.458Z,25.56
2022-07-27T03:11:19.824Z,25.53
2022-07-27T03:12:19.572Z,25.51
2022-07-27T03:13:19.581Z,25.51
2022-07-27T03:14:19.620Z,25.53
2022-07-27T03:15:19.643Z,25.51
2022-07-27T03:16:19.739Z,25.54
2022-07-27T03:17:19.702Z,25.54
2022-07-27T03:18:20.035Z,25.54
2022-07-27T03:19:19.846Z,25.51
2022-07-27T03:20:19.806Z,25.51
2022-07-27T03:21:19.835Z,25.53
2022-07-27T03:23:19.893Z,25.56
2022-07-27T03:24:19.925Z,25.54
2022-07-27T03:25:20.251Z,25.56
2022-07-27T03:26:19.987Z,25.49
2022-07-27T03:27:20.017Z,25.53
2022-07-27T03:28:20.045Z,25.51
2022-07-27T03:29:20.075Z,25.54
2022-07-27T03:30:20.121Z,25.53
2022-07-27T03:31:20.193Z,25.51
2022-07-27T03:32:20.467Z,25.56
2022-07-27T03:33:20.255Z,25.53
2022-07-27T03:34:20.228Z,25.51
2022-07-27T03:35:20.341Z,25.51
2022-07-27T03:36:20.791Z,25.51
2022-07-27T03:37:20.479Z,25.53
2022-07-27T03:38:20.355Z,25.53
2022-07-27T03:39:20.760Z,25.53
2022-07-27T03:40:20.500Z,25.54
2022-07-27T03:41:20.459Z,25.54
2022-07-27T03:42:20.494Z,25.54
2022-07-27T03:43:20.509Z,25.54
2022-07-27T03:44:20.542Z,25.54
2022-07-27T03:45:20.568Z,25.56
2022-07-27T03:46:21.045Z,25.54
2022-07-27T03:47:20.632Z,25.53
2022-07-27T03:48:20.663Z,25.49
2022-07-27T03:49:20.832Z,25.56
2022-07-27T03:50:20.733Z,25.49
2022-07-27T03:51:20.771Z,25.48
2022-07-27T03:52:20.786Z,25.53
2022-07-27T03:53:21.122Z,25.53
2022-07-27T03:55:20.896Z,25.53
2022-07-27T03:56:20.912Z,25.53
2022-07-27T03:57:20.942Z,25.51
2022-07-27T03:58:21.020Z,25.53
2022-07-27T03:59:20.997Z,25.49
2022-07-27T04:00:21.330Z,25.53
2022-07-27T04:01:21.202Z,25.48
2022-07-27T04:02:21.135Z,25.51
2022-07-27T04:03:21.129Z,25.49
2022-07-27T04:04:21.150Z,25.54
2022-07-27T04:05:21.181Z,25.49
2022-07-27T04:06:21.216Z,25.54
2022-07-27T04:07:21.541Z,25.49
2022-07-27T04:08:21.296Z,25.54
2022-07-27T04:09:21.390Z,25.54
2022-07-27T04:10:21.340Z,25.49
2022-07-27T04:11:21.366Z,25.53
2022-07-27T04:12:21.396Z,25.53
2022-07-27T04:13:21.427Z,25.53
2022-07-27T04:14:21.765Z,25.49
2022-07-27T04:15:21.503Z,25.53
2022-07-27T04:16:21.583Z,25.49
2022-07-27T04:17:55.961Z,25.49
2022-07-27T04:19:21.617Z,25.51
2022-07-27T04:20:22.095Z,25.49
2022-07-27T04:21:21.678Z,25.49
2022-07-27T04:23:21.791Z,25.49
2022-07-27T04:24:21.771Z,25.54
2022-07-27T04:25:21.804Z,25.56
2022-07-27T04:26:22.133Z,25.51
2022-07-27T04:27:21.859Z,25.49
2022-07-27T04:28:21.905Z,25.54
2022-07-27T04:29:22.410Z,25.53
2022-07-27T04:31:22.064Z,25.49
2022-07-27T04:32:22.339Z,25.53
2022-07-27T04:33:22.055Z,25.54
2022-07-27T04:34:22.088Z,25.51
2022-07-27T04:35:26.280Z,25.51
2022-07-27T04:36:22.154Z,25.54
2022-07-27T04:37:22.173Z,25.54
2022-07-27T04:38:22.199Z,25.51
2022-07-27T04:39:22.532Z,25.53
2022-07-27T04:40:22.265Z,25.56
2022-07-27T04:41:22.343Z,25.51
2022-07-27T04:42:22.386Z,25.54
2022-07-27T04:43:22.360Z,25.54
2022-07-27T04:44:22.385Z,25.49
2022-07-27T04:45:22.429Z,25.59
2022-07-27T04:46:22.820Z,25.49
2022-07-27T04:47:22.480Z,25.54
2022-07-27T04:48:22.509Z,25.53
2022-07-27T04:50:22.576Z,25.54
2022-07-27T04:51:22.606Z,25.51
2022-07-27T04:52:26.487Z,25.51
2022-07-27T04:53:22.963Z,25.57
2022-07-27T04:54:22.698Z,25.56
2022-07-27T04:55:22.732Z,25.53
2022-07-27T04:56:22.756Z,25.54
2022-07-27T04:57:22.787Z,25.57
2022-07-27T04:58:22.825Z,25.54
2022-07-27T04:59:22.850Z,25.54
2022-07-27T05:00:23.178Z,25.53
2022-07-27T05:01:23.174Z,25.51
2022-07-27T05:02:23.207Z,25.51
2022-07-27T05:03:22.976Z,25.54
2022-07-27T05:04:23.088Z,25.48
2022-07-27T05:05:23.044Z,25.57
2022-07-27T05:06:23.068Z,25.48
2022-07-27T05:07:23.397Z,25.49
2022-07-27T05:08:23.134Z,25.49
2022-07-27T05:09:23.188Z,25.48
2022-07-27T05:10:23.192Z,25.46
2022-07-27T05:11:23.220Z,25.49
2022-07-27T05:12:23.257Z,25.45
2022-07-27T05:13:23.279Z,25.49
2022-07-27T05:14:23.621Z,25.53
2022-07-27T05:15:23.339Z,25.44
2022-07-27T05:16:28.315Z,25.46
2022-07-27T05:17:23.411Z,25.45
2022-07-27T05:18:23.443Z,25.46
2022-07-27T05:19:23.468Z,25.44
2022-07-27T05:20:23.502Z,25.42
2022-07-27T05:21:23.839Z,25.46
2022-07-27T05:23:23.639Z,25.44
2022-07-27T05:24:23.624Z,25.46
2022-07-27T05:25:23.750Z,25.44
2022-07-27T05:26:23.687Z,25.45
2022-07-27T05:27:23.718Z,25.44
2022-07-27T05:28:24.043Z,25.48
2022-07-27T05:29:23.779Z,25.45
2022-07-27T05:30:23.818Z,25.39
2022-07-27T05:31:23.913Z,25.35
2022-07-27T05:32:23.870Z,25.45
2022-07-27T05:33:23.924Z,25.36
2022-07-27T05:34:24.071Z,25.46
2022-07-27T05:35:24.261Z,25.39
2022-07-27T05:36:24.003Z,25.41
2022-07-27T05:37:24.027Z,25.34
2022-07-27T05:38:24.055Z,25.42
2022-07-27T05:39:24.089Z,25.42
2022-07-27T05:40:24.149Z,25.45
2022-07-27T05:41:24.146Z,25.44
2022-07-27T05:42:24.486Z,25.39
2022-07-27T05:43:24.211Z,25.41
2022-07-27T05:44:24.246Z,25.46
2022-07-27T05:45:24.322Z,25.42
2022-07-27T05:46:25.598Z,25.45
2022-07-27T05:47:24.332Z,25.46
2022-07-27T05:48:24.376Z,25.54
2022-07-27T05:49:24.762Z,25.54
2022-07-27T05:50:24.427Z,25.53
2022-07-27T05:51:24.456Z,25.48
2022-07-27T05:52:24.497Z,25.46
2022-07-27T05:53:24.550Z,25.57
2022-07-27T05:54:24.548Z,25.48
2022-07-27T05:55:24.577Z,25.51
2022-07-27T05:56:24.919Z,25.51
2022-07-27T05:57:24.755Z,25.54
2022-07-27T05:58:24.772Z,25.49
2022-07-27T05:59:24.700Z,25.49
2022-07-27T06:02:24.897Z,25.53
2022-07-27T06:03:25.252Z,25.57
2022-07-27T06:04:24.860Z,25.54
2022-07-27T06:05:24.886Z,25.54
2022-07-27T06:06:24.976Z,25.48
2022-07-27T06:07:24.950Z,25.49
2022-07-27T06:08:24.992Z,25.46
2022-07-27T06:09:25.312Z,25.54
2022-07-27T06:10:25.075Z,25.57
2022-07-27T06:11:25.071Z,25.57
2022-07-27T06:12:30.243Z,25.54
2022-07-27T06:13:28.328Z,25.53
2022-07-27T06:15:25.528Z,25.48
2022-07-27T06:16:25.255Z,25.54
2022-07-27T06:17:25.256Z,25.51
2022-07-27T06:18:25.288Z,25.49
2022-07-27T06:19:25.315Z,25.49
2022-07-27T06:20:25.365Z,25.49
2022-07-27T06:21:25.680Z,25.59
2022-07-27T06:22:25.416Z,25.59
2022-07-27T06:23:25.438Z,25.59
2022-07-27T06:24:25.474Z,25.57
2022-07-27T06:25:33.809Z,25.57
2022-07-27T06:26:25.534Z,25.56
2022-07-27T06:27:29.442Z,25.56
2022-07-27T06:28:25.894Z,25.60
2022-07-27T06:29:25.646Z,25.59
2022-07-27T06:30:25.662Z,25.66
2022-07-27T06:31:25.769Z,25.64
2022-07-27T06:34:25.784Z,25.67
2022-07-27T06:35:26.111Z,25.64
2022-07-27T06:36:25.852Z,25.66
2022-07-27T06:37:25.979Z,25.66
2022-07-27T06:38:25.943Z,25.64
2022-07-27T06:39:25.937Z,25.66
2022-07-27T06:40:29.536Z,25.63
2022-07-27T06:41:26.002Z,25.66
2022-07-27T06:42:26.327Z,25.67
2022-07-27T06:43:26.073Z,25.66
2022-07-27T06:45:26.120Z,25.69
2022-07-27T06:46:26.227Z,25.63
2022-07-27T06:47:28.908Z,25.74
2022-07-27T06:48:26.217Z,25.69
2022-07-27T06:49:26.724Z,25.67
2022-07-27T06:50:26.326Z,25.64
2022-07-27T06:51:26.305Z,25.63
2022-07-27T06:52:26.361Z,25.72
2022-07-27T06:53:26.370Z,25.67
2022-07-27T06:54:26.414Z,25.63
2022-07-27T06:55:26.431Z,25.67
2022-07-27T06:56:26.784Z,25.75
2022-07-27T06:58:26.535Z,25.72
2022-07-27T06:59:26.607Z,25.64
2022-07-27T07:00:26.803Z,25.64
2022-07-27T07:01:26.742Z,25.75
2022-07-27T07:03:27.012Z,25.75
2022-07-27T07:04:26.712Z,25.67
2022-07-27T07:05:26.748Z,25.78
2022-07-27T07:06:26.772Z,25.72
2022-07-27T07:07:26.795Z,25.78
2022-07-27T07:08:26.886Z,25.78
2022-07-27T07:09:26.858Z,25.78
2022-07-27T07:10:27.249Z,25.79
2022-07-27T07:11:26.918Z,25.78
2022-07-27T07:12:26.972Z,25.76
2022-07-27T07:13:27.028Z,25.79
2022-07-27T07:14:27.041Z,25.79
2022-07-27T07:15:27.065Z,25.78
2022-07-27T07:16:27.206Z,25.81
2022-07-27T07:17:27.412Z,25.71
2022-07-27T07:18:27.167Z,25.82
2022-07-27T07:19:27.166Z,25.75
2022-07-27T07:20:27.228Z,25.78
2022-07-27T07:21:27.229Z,25.82
2022-07-27T07:22:27.272Z,25.78
2022-07-27T07:23:27.299Z,25.89
2022-07-27T07:24:27.631Z,25.89
2022-07-27T07:26:27.387Z,25.78
2022-07-27T07:27:27.415Z,25.85
2022-07-27T07:28:27.446Z,25.78
2022-07-27T07:29:27.487Z,25.78
2022-07-27T07:30:27.508Z,25.82
2022-07-27T07:31:27.974Z,25.79
2022-07-27T07:32:33.280Z,25.81
2022-07-27T07:33:27.604Z,25.79
2022-07-27T07:34:27.650Z,25.85
2022-07-27T07:35:27.665Z,25.81
2022-07-27T07:36:27.695Z,25.82
2022-07-27T07:37:31.658Z,25.83
2022-07-27T07:38:28.059Z,25.83
2022-07-27T07:39:31.400Z,25.83
2022-07-27T07:40:44.971Z,25.89
2022-07-27T07:41:27.854Z,25.82
2022-07-27T07:42:27.879Z,25.96
2022-07-27T07:43:27.912Z,25.81
2022-07-27T07:44:27.945Z,25.97
2022-07-27T07:45:28.273Z,25.93
2022-07-27T07:46:28.052Z,25.91
2022-07-27T07:47:28.037Z,25.93
2022-07-27T07:48:28.064Z,25.91
2022-07-27T07:49:38.971Z,25.93
2022-07-27T07:50:28.132Z,25.91
2022-07-27T07:51:28.461Z,25.83
2022-07-27T07:52:28.187Z,25.94
2022-07-27T07:53:28.231Z,25.97
2022-07-27T07:54:28.254Z,25.96
2022-07-27T07:55:28.737Z,25.98
2022-07-27T07:56:28.316Z,25.98
2022-07-27T07:57:28.651Z,25.90
2022-07-27T07:58:28.384Z,25.94
2022-07-27T07:59:28.412Z,25.91
2022-07-27T08:00:28.448Z,25.85
2022-07-27T08:01:28.532Z,25.97
2022-07-27T08:02:28.553Z,25.91
2022-07-27T08:03:28.920Z,25.93
2022-07-27T08:04:28.567Z,25.97
2022-07-27T08:05:28.592Z,26.04
2022-07-27T08:06:28.629Z,25.93
2022-07-27T08:07:28.706Z,26.03
2022-07-27T08:08:28.684Z,26.00
2022-07-27T08:09:28.718Z,26.04
2022-07-27T08:10:28.752Z,25.98
2022-07-27T08:11:28.782Z,26.04
2022-07-27T08:12:28.810Z,26.00
2022-07-27T08:13:28.846Z,26.01
2022-07-27T08:14:28.873Z,26.03
2022-07-27T08:16:28.987Z,25.98
2022-07-27T08:17:29.269Z,26.00
2022-07-27T08:18:29.000Z,26.04
2022-07-27T08:19:29.026Z,26.03
2022-07-27T08:20:29.092Z,26.08
2022-07-27T08:21:29.150Z,26.04
2022-07-27T08:22:29.135Z,26.08
2022-07-27T08:23:29.167Z,26.04
2022-07-27T08:24:29.485Z,26.09
2022-07-27T08:25:29.216Z,26.13
2022-07-27T08:26:29.252Z,26.09
2022-07-27T08:27:29.273Z,26.01
2022-07-27T08:28:34.768Z,26.03
2022-07-27T08:29:34.170Z,26.09
2022-07-27T08:30:30.488Z,26.17
2022-07-27T08:31:51.393Z,26.19
2022-07-27T08:32:29.543Z,26.16
2022-07-27T08:33:29.463Z,26.12
2022-07-27T08:34:29.499Z,26.11
2022-07-27T08:35:29.594Z,26.11
2022-07-27T08:36:29.558Z,26.21
2022-07-27T08:37:29.588Z,26.16
2022-07-27T08:38:29.931Z,26.20
2022-07-27T08:40:35.090Z,26.17
2022-07-27T08:40:40.169Z,26.23
2022-07-27T08:41:29.713Z,26.23
2022-07-27T08:42:29.749Z,26.28
2022-07-27T08:43:29.796Z,26.32
2022-07-27T08:45:29.844Z,26.27
2022-07-27T08:46:30.227Z,26.23
2022-07-27T08:47:29.904Z,26.21
2022-07-27T08:48:29.982Z,26.31
2022-07-27T08:49:42.507Z,26.32
2022-07-27T08:51:30.024Z,26.32
2022-07-27T08:52:30.055Z,26.34
2022-07-27T08:53:41.943Z,26.36
2022-07-27T08:54:30.119Z,26.34
2022-07-27T08:55:30.149Z,26.29
2022-07-27T08:56:30.286Z,26.36
2022-07-27T08:57:30.230Z,26.32
2022-07-27T08:58:30.247Z,26.36
2022-07-27T08:59:30.576Z,26.38
2022-07-27T09:00:30.311Z,26.36
2022-07-27T09:01:30.383Z,26.32
2022-07-27T09:02:30.502Z,26.29
2022-07-27T09:03:30.440Z,26.44
2022-07-27T09:04:30.447Z,26.34
2022-07-27T09:05:36.207Z,26.41
2022-07-27T09:06:30.797Z,26.51
2022-07-27T09:07:31.130Z,26.46
2022-07-27T09:08:31.290Z,26.46
2022-07-27T09:09:30.609Z,26.53
2022-07-27T09:10:30.641Z,26.53
2022-07-27T09:11:30.660Z,26.51
2022-07-27T09:12:30.707Z,26.60
2022-07-27T09:13:31.020Z,26.51
2022-07-27T09:14:30.750Z,26.50
2022-07-27T09:15:34.557Z,26.56
2022-07-27T09:17:02.938Z,26.60
2022-07-27T09:18:30.937Z,26.57
2022-07-27T09:19:30.904Z,26.56
2022-07-27T09:20:31.237Z,26.60
2022-07-27T09:21:30.980Z,26.59
2022-07-27T09:22:31.002Z,26.60
2022-07-27T09:23:31.081Z,26.60
2022-07-27T09:24:46.383Z,26.68
2022-07-27T09:26:03.038Z,26.59
2022-07-27T09:26:33.638Z,26.69
2022-07-27T09:27:31.455Z,26.71
2022-07-27T09:28:31.349Z,26.71
2022-07-27T09:29:31.223Z,26.71
2022-07-27T09:30:31.268Z,26.72
2022-07-27T09:31:31.500Z,26.69
2022-07-27T09:32:31.325Z,26.75
2022-07-27T09:33:31.349Z,26.83
2022-07-27T09:34:31.744Z,26.76
2022-07-27T09:35:31.457Z,26.76
2022-07-27T09:36:31.453Z,26.72
2022-07-27T09:37:31.470Z,26.84
2022-07-27T09:38:31.509Z,26.88
2022-07-27T09:39:31.539Z,26.81
2022-07-27T09:40:31.574Z,26.83
2022-07-27T09:41:31.900Z,26.90
2022-07-27T09:43:06.597Z,26.76
2022-07-27T09:45:32.740Z,26.87
2022-07-27T09:46:31.862Z,26.90
2022-07-27T09:47:32.093Z,26.83
2022-07-27T09:48:31.887Z,26.93
2022-07-27T09:49:31.887Z,26.93
2022-07-27T09:50:35.593Z,26.93
2022-07-27T09:52:01.614Z,26.88
2022-07-27T09:52:31.952Z,26.86
2022-07-27T09:53:42.754Z,26.90
2022-07-27T09:54:32.020Z,26.93
2022-07-27T09:55:32.296Z,26.96
2022-07-27T09:56:32.091Z,26.98
2022-07-27T09:57:32.126Z,26.97
2022-07-27T09:58:32.141Z,26.98
2022-07-27T09:59:32.476Z,27.01
2022-07-27T10:00:32.356Z,26.93
2022-07-27T10:01:32.384Z,27.02
2022-07-27T10:02:32.272Z,26.98
2022-07-27T10:03:32.308Z,27.06
2022-07-27T10:04:32.406Z,27.05
2022-07-27T10:05:32.368Z,26.98
2022-07-27T10:06:47.850Z,26.98
2022-07-27T10:07:32.483Z,27.02
2022-07-27T10:08:32.463Z,26.97
2022-07-27T10:09:32.505Z,26.97
2022-07-27T10:10:32.611Z,26.98
2022-07-27T10:12:32.645Z,27.02
2022-07-27T10:13:32.964Z,27.05
2022-07-27T10:14:32.811Z,27.02
2022-07-27T10:15:32.729Z,27.03
2022-07-27T10:16:32.724Z,27.02
2022-07-27T10:17:32.760Z,26.98
2022-07-27T10:18:32.789Z,27.01
2022-07-27T10:19:32.822Z,27.20
2022-07-27T10:20:33.162Z,27.11
2022-07-27T10:21:32.889Z,27.21
2022-07-27T10:22:32.922Z,27.18
2022-07-27T10:23:32.959Z,27.18
2022-07-27T10:24:33.082Z,27.20
2022-07-27T10:25:37.630Z,27.20
2022-07-27T10:26:33.059Z,27.18
2022-07-27T10:27:33.393Z,27.18
2022-07-27T10:28:33.126Z,27.18
2022-07-27T10:29:33.237Z,27.13
2022-07-27T10:30:33.284Z,27.18
2022-07-27T10:31:33.324Z,27.18
2022-07-27T10:32:33.438Z,27.18
2022-07-27T10:33:34.723Z,27.21
2022-07-27T10:34:33.634Z,27.20
2022-07-27T10:35:33.372Z,27.15
2022-07-27T10:36:33.405Z,27.21
2022-07-27T10:37:33.446Z,27.15
2022-07-27T10:38:33.474Z,27.24
2022-07-27T10:39:33.509Z,27.20
2022-07-27T10:40:33.537Z,27.24
2022-07-27T10:41:33.878Z,27.27
2022-07-27T10:42:33.618Z,27.25
2022-07-27T10:43:33.648Z,27.28
2022-07-27T10:44:33.685Z,27.39
2022-07-27T10:46:00.083Z,27.31
2022-07-27T10:46:33.791Z,27.40
2022-07-27T10:47:33.786Z,27.39
2022-07-27T10:48:34.205Z,27.34
2022-07-27T10:49:33.861Z,27.31
2022-07-27T10:50:33.891Z,27.21
2022-07-27T10:51:33.927Z,27.23
2022-07-27T10:52:33.969Z,27.03
2022-07-27T10:53:55.092Z,27.03
2022-07-27T10:54:34.030Z,27.02
2022-07-27T10:55:34.462Z,26.98
2022-07-27T10:56:34.128Z,26.96
2022-07-27T10:57:34.257Z,26.81
2022-07-27T10:58:34.365Z,26.79
2022-07-27T11:00:34.352Z,26.76
2022-07-27T11:01:34.337Z,26.68
2022-07-27T11:02:34.629Z,26.73
2022-07-27T11:03:34.443Z,26.69
2022-07-27T11:04:34.701Z,26.54
2022-07-27T11:06:04.745Z,26.56
2022-07-27T11:06:55.489Z,26.49
2022-07-27T11:07:44.613Z,26.57
2022-07-27T11:08:37.021Z,26.54
2022-07-27T11:10:05.090Z,26.61
2022-07-27T11:10:34.665Z,26.47
2022-07-27T11:11:34.685Z,26.36
2022-07-27T11:12:34.713Z,26.31
2022-07-27T11:13:38.720Z,26.31
2022-07-27T11:14:34.773Z,26.24
2022-07-27T11:15:34.814Z,26.19
2022-07-27T11:16:54.180Z,26.20
2022-07-27T11:17:58.405Z,26.20
2022-07-27T11:18:39.143Z,26.20
2022-07-27T11:19:34.878Z,26.27
2022-07-27T11:20:34.971Z,26.13
2022-07-27T11:21:34.956Z,26.23
2022-07-27T11:23:51.777Z,26.28
2022-07-27T11:24:35.254Z,26.27
2022-07-27T11:25:35.075Z,26.31
2022-07-27T11:26:35.204Z,26.31
2022-07-27T11:27:35.633Z,26.39
2022-07-27T11:28:35.290Z,26.34
2022-07-27T11:29:35.609Z,26.39
2022-07-27T11:30:35.392Z,26.44
2022-07-27T11:31:54.678Z,26.42
2022-07-27T11:33:35.384Z,26.36
2022-07-27T11:34:35.405Z,26.32
2022-07-27T11:35:35.753Z,26.28
2022-07-27T11:36:35.459Z,26.29
2022-07-27T11:37:35.591Z,26.29
2022-07-27T11:38:35.655Z,26.27
2022-07-27T11:39:59.124Z,26.21
2022-07-27T11:40:59.924Z,26.23
2022-07-27T11:42:07.818Z,26.27
2022-07-27T11:42:35.796Z,26.31
2022-07-27T11:43:37.087Z,26.21
2022-07-27T11:44:35.731Z,26.21
2022-07-27T11:45:35.929Z,26.21
2022-07-27T11:46:35.770Z,26.21
2022-07-27T11:47:35.824Z,26.19
2022-07-27T11:49:03.928Z,26.17
2022-07-27T11:50:35.960Z,26.23
2022-07-27T11:52:36.208Z,26.20
2022-07-27T11:53:35.997Z,26.19
2022-07-27T11:54:36.114Z,26.19
2022-07-27T11:55:36.413Z,26.24
2022-07-27T11:56:36.137Z,26.20
2022-07-27T11:57:36.137Z,26.20
2022-07-27T11:58:36.171Z,26.28
2022-07-27T11:59:36.199Z,26.28
2022-07-27T12:00:36.316Z,26.24
2022-07-27T12:01:36.223Z,26.32
2022-07-27T12:02:36.668Z,26.29
2022-07-27T12:03:47.683Z,26.28
2022-07-27T12:04:36.390Z,26.24
2022-07-27T12:05:36.627Z,26.24
2022-07-27T12:06:36.448Z,26.31
2022-07-27T12:07:36.558Z,26.39
2022-07-27T12:08:36.573Z,26.32
2022-07-27T12:09:38.719Z,26.35
2022-07-27T12:10:37.807Z,26.34
2022-07-27T12:11:36.554Z,26.36
2022-07-27T12:12:36.806Z,26.31
2022-07-27T12:13:36.637Z,26.34
2022-07-27T12:14:36.669Z,26.47
2022-07-27T12:15:46.585Z,26.46
2022-07-27T12:16:37.095Z,26.47
2022-07-27T12:17:36.874Z,26.53
2022-07-27T12:18:36.854Z,26.47
2022-07-27T12:19:36.819Z,26.53
2022-07-27T12:20:36.879Z,26.59
2022-07-27T12:21:36.880Z,26.53
2022-07-27T12:22:36.997Z,26.57
2022-07-27T12:23:37.430Z,26.60
2022-07-27T12:24:37.137Z,26.64
2022-07-27T12:25:37.110Z,26.61
2022-07-27T12:26:37.344Z,26.65
2022-07-27T12:27:37.164Z,26.64
2022-07-27T12:28:37.124Z,26.61
2022-07-27T12:29:37.136Z,26.66
2022-07-27T12:30:37.568Z,26.68
2022-07-27T12:31:37.222Z,26.60
2022-07-27T12:33:37.639Z,26.66
2022-07-27T12:34:37.348Z,26.72
2022-07-27T12:35:40.692Z,26.75
2022-07-27T12:36:37.446Z,26.59
2022-07-27T12:37:37.731Z,26.69
2022-07-27T12:38:37.519Z,26.73
2022-07-27T12:40:37.493Z,26.73
2022-07-27T12:41:37.588Z,26.68
2022-07-27T12:42:37.759Z,26.72
2022-07-27T12:43:37.612Z,26.75
2022-07-27T12:44:37.992Z,26.72
2022-07-27T12:45:37.775Z,26.72
2022-07-27T12:46:37.860Z,26.78
2022-07-27T12:47:37.765Z,26.78
2022-07-27T12:48:37.949Z,26.73
2022-07-27T12:49:40.842Z,26.79
2022-07-27T12:50:37.816Z,26.75
2022-07-27T12:52:38.519Z,26.87
2022-07-27T12:53:38.011Z,26.83
2022-07-27T12:54:37.983Z,26.81
2022-07-27T12:55:38.139Z,26.83
2022-07-27T12:56:38.105Z,26.87
2022-07-27T12:57:54.720Z,26.86
2022-07-27T12:58:38.143Z,26.87
2022-07-27T12:59:38.167Z,26.93
2022-07-27T13:00:38.169Z,26.91
2022-07-27T13:01:38.505Z,26.90
2022-07-27T13:02:38.331Z,26.98
2022-07-27T13:03:38.267Z,26.97
2022-07-27T13:04:38.340Z,27.01
2022-07-27T13:05:38.705Z,26.98
2022-07-27T13:06:38.337Z,26.93
2022-07-27T13:07:38.572Z,26.98
2022-07-27T13:08:38.582Z,26.94
2022-07-27T13:10:02.902Z,26.96
2022-07-27T13:10:38.472Z,26.94
2022-07-27T13:11:38.499Z,27.01
2022-07-27T13:12:38.937Z,26.94
2022-07-27T13:13:38.634Z,27.01
2022-07-27T13:14:38.626Z,26.96
2022-07-27T13:15:38.637Z,26.98
2022-07-27T13:16:38.755Z,26.94
2022-07-27T13:17:38.773Z,26.94
2022-07-27T13:18:39.057Z,27.03
2022-07-27T13:20:38.852Z,27.05
2022-07-27T13:21:38.830Z,26.94
2022-07-27T13:23:38.890Z,26.96
2022-07-27T13:24:39.222Z,27.05
2022-07-27T13:25:43.239Z,26.94
2022-07-27T13:26:39.096Z,27.01
2022-07-27T13:27:39.023Z,27.02
2022-07-27T13:28:39.174Z,26.97
2022-07-27T13:29:39.089Z,26.97
2022-07-27T13:30:39.502Z,27.16
2022-07-27T13:31:41.441Z,27.06
2022-07-27T13:32:39.304Z,27.05
2022-07-27T13:33:39.336Z,27.06
2022-07-27T13:34:39.416Z,27.01
2022-07-27T13:35:39.299Z,27.03
2022-07-27T13:36:39.420Z,27.13
2022-07-27T13:37:39.782Z,26.98
2022-07-27T13:38:39.467Z,27.01
2022-07-27T13:39:39.439Z,26.94
2022-07-27T13:40:39.580Z,26.93